Time;durP1;ratioP1;P1;durP2;ratioP2;P2;SDS_P1;SDS_P2;PMS_P1;PMS_P2;Temp;Humidity;BMP_temperature;BMP_pressure;BME280_temperature;BME280_humidity;BME280_pressure;Samples;Min_cycle;Max_cycle;Signal;HPM_P1;HPM_P2
2023/01/20 04:01:03;;;;;;;5.10;4.60;;;3.10;79.40;;;;;;5848821;23;21235;-71
2023/01/20 04:03:33;;;;;;;5.87;5.37;;;3.10;79.40;;;;;;4959129;29;20502;-70
2023/01/20 04:06:02;;;;;;;6.60;5.10;;;3.00;79.70;;;;;;4959711;29;20488;-70
2023/01/20 04:08:33;;;;;;;5.23;4.73;;;3.00;79.90;;;;;;4961449;29;20455;-73
2023/01/20 04:11:04;;;;;;;5.73;5.17;;;3.00;79.90;;;;;;4959095;29;20466;-70
2023/01/20 04:13:31;;;;;;;6.00;5.40;;;3.00;79.80;;;;;;4959171;29;20904;-70
2023/01/20 04:16:01;;;;;;;5.80;5.30;;;3.00;79.80;;;;;;4958782;29;20513;-70
2023/01/20 04:18:28;;;;;;;6.50;5.87;;;3.00;79.60;;;;;;4958813;29;20466;-70
2023/01/20 04:20:58;;;;;;;5.40;4.90;;;3.00;79.60;;;;;;4958537;29;20530;-70
2023/01/20 04:23:29;;;;;;;5.83;5.30;;;3.00;79.60;;;;;;4958297;29;21007;-70
2023/01/20 04:25:55;;;;;;;5.80;5.20;;;2.90;79.60;;;;;;4958252;29;20855;-70
2023/01/20 04:28:22;;;;;;;5.63;5.13;;;2.90;79.50;;;;;;4958360;29;21024;-70
2023/01/20 04:30:49;;;;;;;6.03;5.43;;;2.90;79.60;;;;;;4958455;29;20474;-70
2023/01/20 04:33:17;;;;;;;5.60;5.00;;;2.90;79.50;;;;;;4958511;29;20463;-70
2023/01/20 04:35:44;;;;;;;5.60;5.10;;;3.00;79.50;;;;;;4958565;29;20493;-70
2023/01/20 04:38:11;;;;;;;5.80;4.43;;;3.00;79.40;;;;;;4958426;29;20451;-70
2023/01/20 04:40:37;;;;;;;5.03;4.53;;;3.00;79.20;;;;;;4958228;29;20451;-69
2023/01/20 04:43:04;;;;;;;5.63;4.50;;;3.00;79.00;;;;;;4958964;29;20490;-70
2023/01/20 04:45:31;;;;;;;6.60;4.80;;;3.00;78.90;;;;;;4958222;29;20868;-70
2023/01/20 04:47:57;;;;;;;4.33;3.93;;;3.00;79.20;;;;;;4958301;29;20521;-70
2023/01/20 04:50:25;;;;;;;3.97;3.57;;;3.00;78.90;;;;;;4958189;29;20506;-69
2023/01/20 04:52:55;;;;;;;3.87;3.50;;;3.00;79.20;;;;;;4958144;29;20451;-70
2023/01/20 04:55:22;;;;;;;5.83;4.23;;;2.90;78.80;;;;;;4957908;28;20461;-71
2023/01/20 04:57:48;;;;;;;5.77;4.50;;;2.90;79.20;;;;;;4957734;29;20944;-71
2023/01/20 05:00:18;;;;;;;4.50;4.07;;;2.90;78.90;;;;;;4958098;29;20510;-70
2023/01/20 05:02:45;;;;;;;7.60;3.63;;;2.90;78.70;;;;;;4957774;28;20490;-70
2023/01/20 05:05:12;;;;;;;4.93;3.53;;;2.90;78.60;;;;;;4957807;29;21013;-70
2023/01/20 05:07:40;;;;;;;4.33;3.93;;;2.90;78.60;;;;;;4957708;29;20944;-70
2023/01/20 05:10:07;;;;;;;3.93;3.57;;;2.80;78.80;;;;;;4957671;29;20452;-70
2023/01/20 05:12:35;;;;;;;3.60;3.30;;;2.80;78.50;;;;;;4957683;29;20489;-70
2023/01/20 05:15:01;;;;;;;4.13;3.73;;;2.90;78.60;;;;;;4957755;29;20458;-70
2023/01/20 05:17:28;;;;;;;3.67;3.30;;;2.90;78.50;;;;;;4957651;29;20459;-71
2023/01/20 05:19:55;;;;;;;3.93;3.63;;;2.90;78.00;;;;;;4957188;29;20455;-70
2023/01/20 05:22:21;;;;;;;3.63;3.33;;;2.90;78.00;;;;;;4957492;29;20597;-70
2023/01/20 05:24:49;;;;;;;3.90;3.60;;;2.90;77.80;;;;;;4957688;29;20549;-70
2023/01/20 05:27:16;;;;;;;3.67;3.13;;;2.90;77.70;;;;;;4957512;29;20446;-70
2023/01/20 05:29:43;;;;;;;4.17;3.77;;;2.90;77.70;;;;;;4957807;29;20471;-71
2023/01/20 05:32:09;;;;;;;4.30;3.57;;;2.90;77.80;;;;;;4958007;29;20474;-70
2023/01/20 05:34:36;;;;;;;5.70;4.90;;;2.90;77.90;;;;;;4957537;29;20577;-70
2023/01/20 05:37:03;;;;;;;4.10;3.70;;;2.90;78.10;;;;;;4957348;29;20479;-70
2023/01/20 05:39:29;;;;;;;3.87;3.13;;;2.90;78.10;;;;;;4957391;29;20506;-71
2023/01/20 05:41:57;;;;;;;6.53;5.77;;;2.90;78.20;;;;;;4957019;29;20483;-70
2023/01/20 05:44:24;;;;;;;5.37;4.87;;;2.90;78.20;;;;;;4957158;29;20450;-70
2023/01/20 05:46:51;;;;;;;4.57;4.17;;;2.90;78.00;;;;;;4957295;29;20448;-70
2023/01/20 05:49:17;;;;;;;6.50;5.80;;;2.80;78.10;;;;;;4957279;29;20451;-70
2023/01/20 05:51:44;;;;;;;7.10;6.07;;;2.90;78.10;;;;;;4957083;29;20471;-70
2023/01/20 05:54:11;;;;;;;6.90;5.83;;;2.80;78.00;;;;;;4957166;29;20526;-71
2023/01/20 05:56:37;;;;;;;6.27;5.63;;;2.80;78.10;;;;;;4957112;29;20459;-69
2023/01/20 05:59:06;;;;;;;6.17;5.10;;;2.80;78.20;;;;;;4957041;29;20451;-70
2023/01/20 06:01:33;;;;;;;5.73;5.17;;;2.80;78.40;;;;;;4956782;28;20487;-69
2023/01/20 06:03:59;;;;;;;5.57;4.77;;;2.80;78.30;;;;;;4957034;29;20487;-70
2023/01/20 06:06:26;;;;;;;4.97;4.33;;;2.80;78.30;;;;;;4957109;29;20451;-70
2023/01/20 06:08:53;;;;;;;5.43;4.03;;;2.90;78.20;;;;;;4956755;29;20532;-70
2023/01/20 06:11:20;;;;;;;8.00;7.20;;;2.90;78.30;;;;;;4956714;29;20478;-70
2023/01/20 06:13:47;;;;;;;6.87;6.17;;;2.90;78.10;;;;;;4956721;29;20451;-70
2023/01/20 06:16:17;;;;;;;5.30;4.80;;;2.90;78.10;;;;;;4956673;29;20451;-70
2023/01/20 06:18:44;;;;;;;5.83;5.20;;;2.90;78.20;;;;;;4956520;29;20451;-70
2023/01/20 06:21:10;;;;;;;5.00;4.50;;;2.90;78.30;;;;;;4955624;28;20984;-70
2023/01/20 06:23:37;;;;;;;6.80;5.13;;;2.90;78.30;;;;;;4956361;29;20494;-69
2023/01/20 06:26:05;;;;;;;4.43;4.00;;;2.80;78.50;;;;;;4956548;29;20490;-70
2023/01/20 06:28:33;;;;;;;4.67;4.23;;;2.80;78.60;;;;;;4956468;29;20458;-70
2023/01/20 06:31:01;;;;;;;4.47;4.07;;;2.80;78.70;;;;;;4956330;29;20852;-70
2023/01/20 06:33:29;;;;;;;6.17;4.53;;;2.80;78.60;;;;;;4956926;29;20505;-70
2023/01/20 06:35:56;;;;;;;4.80;4.03;;;2.80;78.40;;;;;;4956290;29;21026;-70
2023/01/20 06:38:23;;;;;;;4.60;4.20;;;2.80;78.40;;;;;;4956175;29;20510;-70
2023/01/20 06:40:50;;;;;;;4.67;4.20;;;2.70;78.40;;;;;;4956065;29;20528;-70
2023/01/20 06:43:16;;;;;;;4.67;4.27;;;2.70;78.40;;;;;;4955966;29;20487;-70
2023/01/20 06:45:43;;;;;;;4.43;4.03;;;2.60;78.40;;;;;;4956133;29;20501;-70
2023/01/20 06:48:10;;;;;;;4.97;4.57;;;2.60;78.80;;;;;;4956536;29;20534;-70
2023/01/20 06:50:38;;;;;;;4.67;4.17;;;2.60;78.50;;;;;;4956523;29;21005;-71
2023/01/20 06:53:04;;;;;;;4.80;4.40;;;2.60;78.40;;;;;;4956761;29;20459;-70
2023/01/20 06:55:31;;;;;;;4.90;4.50;;;2.60;78.40;;;;;;4956347;29;20450;-70
2023/01/20 06:57:58;;;;;;;4.70;4.30;;;2.60;78.10;;;;;;4955923;29;20463;-71
2023/01/20 07:00:24;;;;;;;5.57;5.07;;;2.60;78.20;;;;;;4955623;29;20462;-71
2023/01/20 07:02:51;;;;;;;5.53;4.43;;;2.50;78.00;;;;;;4955307;29;21020;-70
2023/01/20 07:05:18;;;;;;;4.83;3.93;;;2.50;78.20;;;;;;4955537;29;20508;-70
2023/01/20 07:07:46;;;;;;;4.90;4.40;;;2.50;78.00;;;;;;4955795;29;20503;-70
2023/01/20 07:10:13;;;;;;;7.00;6.27;;;2.50;78.00;;;;;;4955608;29;20451;-71
2023/01/20 07:12:39;;;;;;;8.10;7.30;;;2.40;78.00;;;;;;4955501;29;20463;-70
2023/01/20 07:15:07;;;;;;;10.17;9.00;;;2.40;78.20;;;;;;4956298;29;20486;-69
2023/01/20 07:17:34;;;;;;;9.50;7.77;;;2.30;78.40;;;;;;4955904;28;20454;-69
2023/01/20 07:20:00;;;;;;;9.53;6.90;;;2.40;78.40;;;;;;4955576;29;20799;-69
2023/01/20 07:22:27;;;;;;;5.40;4.90;;;2.40;78.20;;;;;;4956071;29;20566;-71
2023/01/20 07:24:55;;;;;;;6.70;6.10;;;2.40;78.20;;;;;;4955803;29;20513;-70
2023/01/20 07:27:22;;;;;;;6.80;5.73;;;2.30;78.30;;;;;;4955682;29;20449;-71
2023/01/20 07:29:48;;;;;;;6.27;5.47;;;2.30;78.50;;;;;;4955366;29;20458;-71
2023/01/20 07:32:15;;;;;;;7.23;6.53;;;2.30;78.70;;;;;;4954193;28;20534;-73
2023/01/20 07:34:41;;;;;;;7.10;6.37;;;2.30;79.10;;;;;;4955432;29;20949;-72
2023/01/20 07:37:08;;;;;;;7.03;6.40;;;2.40;78.80;;;;;;4955469;29;20443;-70
2023/01/20 07:39:35;;;;;;;5.30;4.80;;;2.40;78.80;;;;;;4955584;29;20955;-70
2023/01/20 07:42:03;;;;;;;5.10;4.60;;;2.30;78.80;;;;;;4955365;29;20495;-72
2023/01/20 07:44:30;;;;;;;5.00;4.60;;;2.40;79.10;;;;;;4955207;28;20521;-71
2023/01/20 07:46:57;;;;;;;6.30;4.60;;;2.50;78.60;;;;;;4955124;29;20521;-71
2023/01/20 07:49:24;;;;;;;5.43;4.93;;;2.50;78.90;;;;;;4956632;29;20461;-72
2023/01/20 07:51:50;;;;;;;5.00;4.30;;;2.50;78.70;;;;;;4955500;29;20475;-71
2023/01/20 07:54:17;;;;;;;3.57;3.27;;;2.60;78.80;;;;;;4955872;29;20447;-72
2023/01/20 07:56:44;;;;;;;3.80;3.30;;;2.60;78.90;;;;;;4956196;29;20459;-71
2023/01/20 07:59:11;;;;;;;4.83;4.33;;;2.50;78.60;;;;;;4955960;29;20455;-72
2023/01/20 08:01:38;;;;;;;4.70;4.23;;;2.50;78.60;;;;;;4955528;29;20493;-71
2023/01/20 08:04:05;;;;;;;4.10;3.70;;;2.40;78.70;;;;;;4955958;29;20489;-72
2023/01/20 08:06:31;;;;;;;4.40;4.00;;;2.50;79.20;;;;;;4955757;29;20458;-72
2023/01/20 08:09:01;;;;;;;3.73;3.37;;;2.50;79.00;;;;;;4955489;29;20521;-72
2023/01/20 08:11:27;;;;;;;4.77;3.60;;;2.60;78.70;;;;;;4955718;29;20558;-72
2023/01/20 08:13:54;;;;;;;3.90;3.50;;;2.60;78.70;;;;;;4955167;29;20455;-71
2023/01/20 08:16:22;;;;;;;4.90;4.40;;;2.70;79.00;;;;;;4954864;29;20445;-72
2023/01/20 08:18:49;;;;;;;3.93;3.53;;;2.80;78.60;;;;;;4954986;29;20454;-73
2023/01/20 08:21:21;;;;;;;5.23;4.13;;;2.90;78.30;;;;;;4954940;29;20475;-72
2023/01/20 08:23:49;;;;;;;7.63;6.70;;;3.00;78.00;;;;;;4954740;29;20483;-72
2023/01/20 08:26:16;;;;;;;5.00;4.50;;;3.00;77.40;;;;;;4954811;29;20509;-72
2023/01/20 08:28:43;;;;;;;4.77;4.37;;;3.00;77.40;;;;;;4955063;29;20505;-71
2023/01/20 08:31:11;;;;;;;4.50;4.10;;;3.10;76.70;;;;;;4957271;29;20530;-71
2023/01/20 08:33:41;;;;;;;4.23;3.60;;;3.10;76.40;;;;;;4955525;28;20506;-71
2023/01/20 08:36:10;;;;;;;4.57;4.17;;;3.10;76.40;;;;;;4955447;29;20511;-71
2023/01/20 08:38:37;;;;;;;3.87;3.43;;;3.20;76.40;;;;;;4955693;29;20455;-70
2023/01/20 08:41:07;;;;;;;4.90;4.40;;;3.20;76.00;;;;;;4955727;29;20479;-72
2023/01/20 08:43:33;;;;;;;4.13;3.53;;;3.30;75.50;;;;;;4957696;28;20506;-70
2023/01/20 08:46:01;;;;;;;4.07;3.67;;;3.40;75.30;;;;;;4959835;29;20804;-72
2023/01/20 08:48:28;;;;;;;4.37;3.97;;;3.50;75.20;;;;;;4959820;29;20451;-72
2023/01/20 08:50:56;;;;;;;4.53;4.03;;;3.50;75.40;;;;;;4959386;29;20463;-72
2023/01/20 08:53:22;;;;;;;5.83;4.10;;;3.50;75.10;;;;;;4958758;29;20447;-71
2023/01/20 08:55:56;;;;;;;4.10;3.67;;;3.50;74.90;;;;;;4958574;29;20514;-71
2023/01/20 08:58:23;;;;;;;3.37;3.07;;;3.60;75.20;;;;;;4958272;29;20455;-72
2023/01/20 09:00:50;;;;;;;4.13;3.70;;;3.60;74.60;;;;;;4957846;29;20478;-72
2023/01/20 09:03:16;;;;;;;3.90;3.60;;;3.50;74.70;;;;;;4958868;29;20517;-72
2023/01/20 09:05:43;;;;;;;3.80;3.50;;;3.40;74.60;;;;;;4958369;29;20862;-71
2023/01/20 09:08:11;;;;;;;3.90;3.13;;;3.40;74.70;;;;;;4958038;29;20466;-71
2023/01/20 09:10:38;;;;;;;4.50;3.37;;;3.50;74.90;;;;;;4958133;29;20454;-71
2023/01/20 09:13:05;;;;;;;5.70;4.03;;;3.50;74.60;;;;;;4958307;29;20459;-71
2023/01/20 09:15:31;;;;;;;3.40;3.10;;;3.60;74.40;;;;;;4958088;29;20455;-72
2023/01/20 09:17:58;;;;;;;3.80;3.50;;;3.70;74.40;;;;;;4958246;29;20455;-71
2023/01/20 09:20:26;;;;;;;4.43;3.83;;;3.80;74.10;;;;;;4957760;29;20475;-73
2023/01/20 09:22:52;;;;;;;4.43;3.70;;;3.90;73.80;;;;;;4957680;29;20463;-71
2023/01/20 09:25:20;;;;;;;3.87;3.47;;;3.90;74.10;;;;;;4957325;29;20946;-72
2023/01/20 09:27:47;;;;;;;3.20;2.80;;;3.80;73.80;;;;;;4958102;29;20456;-71
2023/01/20 09:30:14;;;;;;;4.50;4.10;;;3.90;73.90;;;;;;4957173;29;20502;-71
2023/01/20 09:32:41;;;;;;;3.30;3.00;;;4.00;73.60;;;;;;4957488;29;20527;-70
2023/01/20 09:35:08;;;;;;;3.90;3.50;;;4.10;73.60;;;;;;4957726;29;20447;-71
2023/01/20 09:46:12;;;;;;;3.47;2.93;;;4.10;72.90;;;;;;4957627;29;20414;-71
2023/01/20 09:54:28;;;;;;;4.87;3.90;;;4.00;73.80;;;;;;4958613;28;20536;-72
2023/01/20 09:57:00;;;;;;;4.13;3.73;;;3.80;74.30;;;;;;4957848;29;20494;-71
2023/01/20 09:59:32;;;;;;;4.00;3.53;;;3.80;74.90;;;;;;4962952;29;20491;-73
2023/01/20 10:02:01;;;;;;;3.10;2.80;;;3.70;75.20;;;;;;4960643;29;20495;-73
2023/01/20 10:04:35;;;;;;;5.43;3.63;;;3.70;75.60;;;;;;4958874;29;20924;-74
2023/01/20 10:07:09;;;;;;;4.23;3.37;;;4.00;75.70;;;;;;4957482;29;20451;-73
2023/01/20 10:09:42;;;;;;;5.70;3.47;;;4.10;74.80;;;;;;4958346;29;20440;-73
2023/01/20 10:12:15;;;;;;;4.00;3.30;;;4.10;74.60;;;;;;4958719;29;20471;-74
2023/01/20 10:14:46;;;;;;;3.60;3.30;;;4.30;73.90;;;;;;4966736;23;20534;-72
2023/01/20 10:17:18;;;;;;;3.03;2.73;;;4.40;74.60;;;;;;4957980;29;20858;-73
2023/01/20 10:19:50;;;;;;;3.20;2.90;;;4.60;74.30;;;;;;4957817;29;20427;-72
2023/01/20 10:22:21;;;;;;;4.60;3.50;;;4.70;74.10;;;;;;4957062;29;20431;-72
2023/01/20 10:24:54;;;;;;;4.53;3.87;;;4.80;73.30;;;;;;4957197;29;20555;-70
2023/01/20 10:27:25;;;;;;;4.30;3.53;;;4.90;72.00;;;;;;4956456;29;20936;-70
2023/01/20 10:29:57;;;;;;;4.27;3.60;;;5.00;71.70;;;;;;4957106;29;20530;-70
2023/01/20 10:32:31;;;;;;;4.23;3.83;;;5.10;71.20;;;;;;4956776;29;20518;-71
2023/01/20 10:35:03;;;;;;;4.10;3.70;;;5.10;70.60;;;;;;4956323;29;20470;-70
2023/01/20 10:37:30;;;;;;;6.17;4.90;;;5.20;70.70;;;;;;4956257;29;20435;-70
2023/01/20 10:40:04;;;;;;;3.77;3.37;;;5.00;70.50;;;;;;4956231;29;20497;-69
2023/01/20 10:42:33;;;;;;;4.33;3.93;;;4.90;72.00;;;;;;4956219;28;20781;-69
2023/01/20 10:45:00;;;;;;;5.93;3.87;;;5.10;71.10;;;;;;4956155;29;20538;-70
2023/01/20 10:47:41;;;;;;;4.00;2.93;;;4.80;71.40;;;;;;4956359;29;20949;-71
2023/01/20 10:50:26;;;;;;;4.77;3.83;;;4.80;71.60;;;;;;4957258;29;20897;-70
2023/01/20 10:53:14;;;;;;;4.47;4.07;;;4.60;72.70;;;;;;4958765;29;20446;-70
2023/01/20 10:55:58;;;;;;;4.10;3.70;;;4.90;72.90;;;;;;4956026;29;20503;-70
2023/01/20 10:58:29;;;;;;;3.83;3.37;;;5.10;72.20;;;;;;4956371;29;20435;-69
2023/01/20 11:00:59;;;;;;;5.43;4.57;;;4.90;71.60;;;;;;4956099;29;20439;-70
2023/01/20 11:03:25;;;;;;;4.10;3.37;;;5.00;71.90;;;;;;4956250;29;20495;-70
2023/01/20 11:05:53;;;;;;;4.47;3.83;;;5.00;72.50;;;;;;4956113;28;20455;-69
2023/01/20 11:08:22;;;;;;;5.13;3.60;;;5.10;71.50;;;;;;4956333;29;20524;-69
2023/01/20 11:10:53;;;;;;;4.00;3.60;;;5.20;71.30;;;;;;4956064;29;20455;-70
2023/01/20 11:13:19;;;;;;;3.90;3.50;;;5.40;72.20;;;;;;4955972;29;20475;-70
2023/01/20 11:15:50;;;;;;;3.80;3.50;;;5.60;69.40;;;;;;4956155;29;20443;-69
2023/01/20 11:18:27;;;;;;;4.23;3.40;;;5.80;70.00;;;;;;4956432;29;20439;-69
2023/01/20 11:20:57;;;;;;;2.63;2.43;;;5.60;69.50;;;;;;4956462;29;20471;-69
2023/01/20 11:23:32;;;;;;;3.30;2.70;;;5.40;68.40;;;;;;4956339;29;20526;-70
2023/01/20 11:26:00;;;;;;;3.13;2.77;;;5.60;69.00;;;;;;4956107;29;20964;-70
2023/01/20 11:28:31;;;;;;;4.30;3.37;;;5.80;69.50;;;;;;4955470;29;20451;-70
2023/01/20 11:30:59;;;;;;;3.90;2.60;;;5.80;68.00;;;;;;4955536;29;20439;-69
2023/01/20 11:33:27;;;;;;;3.37;2.67;;;6.00;68.30;;;;;;4955250;29;20482;-69
2023/01/20 11:35:58;;;;;;;2.77;2.50;;;6.00;68.10;;;;;;4955369;29;20455;-70
2023/01/20 11:38:26;;;;;;;5.43;3.07;;;5.90;67.50;;;;;;4955435;29;20534;-71
2023/01/20 11:40:54;;;;;;;2.87;2.10;;;5.90;68.50;;;;;;4955257;29;20486;-69
2023/01/20 11:43:31;;;;;;;2.93;2.07;;;6.20;67.40;;;;;;4954829;29;21059;-71
2023/01/20 11:46:22;;;;;;;3.37;2.00;;;6.20;66.10;;;;;;4955197;29;20509;-70
2023/01/20 11:48:49;;;;;;;3.57;2.00;;;6.60;65.40;;;;;;4955128;29;20440;-70
2023/01/20 11:51:21;;;;;;;3.60;2.10;;;6.80;64.50;;;;;;4954855;29;20951;-69
2023/01/20 11:53:48;;;;;;;4.53;2.83;;;6.80;63.10;;;;;;4955050;29;20478;-70
2023/01/20 11:56:19;;;;;;;3.47;2.70;;;6.70;63.20;;;;;;4955105;29;20477;-69
2023/01/20 11:58:53;;;;;;;2.40;1.90;;;6.50;64.40;;;;;;4955201;29;20494;-70
2023/01/20 12:01:24;;;;;;;3.50;2.23;;;6.40;61.80;;;;;;4955341;29;20439;-69
2023/01/20 12:04:14;;;;;;;2.40;1.87;;;6.10;63.20;;;;;;4954627;29;20869;-70
2023/01/20 12:06:51;;;;;;;3.60;2.23;;;6.20;62.80;;;;;;4955028;29;20442;-70
2023/01/20 12:09:22;;;;;;;3.17;2.77;;;6.10;63.60;;;;;;4957077;29;20581;-69
2023/01/20 12:11:56;;;;;;;3.50;2.30;;;5.90;63.30;;;;;;4956491;29;20431;-69
2023/01/20 12:14:28;;;;;;;3.83;2.27;;;5.70;63.90;;;;;;4956192;28;20483;-69
2023/01/20 12:17:06;;;;;;;2.70;2.20;;;5.60;64.90;;;;;;4956202;29;20490;-69
2023/01/20 12:19:41;;;;;;;3.37;2.40;;;5.90;64.60;;;;;;4959301;28;20511;-69
2023/01/20 12:22:13;;;;;;;2.70;2.03;;;6.00;63.50;;;;;;4959895;29;20438;-69
2023/01/20 12:27:34;;;;;;;5.33;2.43;;;6.40;63.20;;;;;;4960584;29;20427;-68
2023/01/20 12:30:05;;;;;;;3.40;2.03;;;6.30;62.40;;;;;;4961878;29;20510;-70
2023/01/20 12:32:34;;;;;;;4.03;2.27;;;6.10;63.00;;;;;;4962355;29;20435;-68
2023/01/20 12:35:00;;;;;;;2.90;2.10;;;6.20;62.90;;;;;;4961123;29;20478;-69
2023/01/20 12:37:38;;;;;;;3.40;1.83;;;6.40;64.50;;;;;;4960885;29;20814;-70
2023/01/20 12:40:21;;;;;;;2.53;1.80;;;8.90;59.40;;;;;;4960162;29;20447;-70
2023/01/20 12:43:04;;;;;;;2.80;2.37;;;12.20;49.30;;;;;;4959993;29;20438;-69
2023/01/20 12:45:46;;;;;;;2.73;2.00;;;13.20;48.90;;;;;;4960179;29;20483;-70
2023/01/20 12:48:25;;;;;;;2.63;1.90;;;16.00;43.40;;;;;;4959984;29;20446;-71
2023/01/20 12:51:06;;;;;;;2.90;1.70;;;18.40;38.80;;;;;;4960602;29;20439;-71
2023/01/20 12:53:50;;;;;;;2.53;1.27;;;20.30;37.10;;;;;;4959289;29;20459;-69
2023/01/20 12:56:31;;;;;;;2.50;1.70;;;21.40;33.90;;;;;;4959612;29;20451;-70
2023/01/20 12:59:04;;;;;;;2.07;1.43;;;22.40;33.30;;;;;;4959709;29;20948;-71
2023/01/20 13:01:48;;;;;;;2.20;1.63;;;23.30;31.20;;;;;;4959289;29;20925;-72
2023/01/20 13:04:56;;;;;;;2.57;1.50;;;21.40;33.20;;;;;;4959761;28;20501;-70
2023/01/20 13:07:45;;;;;;;2.23;1.50;;;20.00;34.40;;;;;;4953046;29;20866;-70
2023/01/20 13:10:42;;;;;;;2.00;1.37;;;20.40;35.80;;;;;;4959389;29;20447;-70
2023/01/20 13:13:19;;;;;;;2.57;1.37;;;20.50;34.60;;;;;;4959140;29;20495;-72
2023/01/20 13:15:52;;;;;;;2.03;1.27;;;20.20;34.40;;;;;;4960015;29;20469;-70
2023/01/20 13:18:30;;;;;;;3.20;1.67;;;18.90;34.90;;;;;;4960827;28;20435;-70
2023/01/20 13:20:58;;;;;;;2.13;1.50;;;17.20;36.30;;;;;;4960759;29;20494;-70
2023/01/20 13:23:27;;;;;;;2.20;1.60;;;15.20;38.70;;;;;;4960748;29;20478;-69
2023/01/20 13:25:54;;;;;;;2.10;1.60;;;13.80;41.50;;;;;;4961084;29;20487;-70
2023/01/20 13:28:23;;;;;;;2.40;1.90;;;12.20;43.70;;;;;;4961203;29;20451;-70
2023/01/20 13:30:52;;;;;;;3.20;1.80;;;10.90;46.70;;;;;;4960784;28;20467;-69
2023/01/20 13:33:34;;;;;;;3.00;1.73;;;10.40;48.50;;;;;;4960572;29;20471;-69
2023/01/20 13:36:14;;;;;;;2.17;1.20;;;10.40;48.70;;;;;;4960635;29;20439;-70
2023/01/20 13:38:41;;;;;;;2.73;1.57;;;10.00;49.80;;;;;;4961457;29;20416;-68
2023/01/20 13:41:09;;;;;;;2.00;1.40;;;9.90;50.20;;;;;;4961725;29;20514;-69
2023/01/20 13:43:46;;;;;;;2.73;2.00;;;9.80;50.80;;;;;;4961238;29;20479;-68
2023/01/20 13:46:56;;;;;;;2.40;1.43;;;9.50;51.50;;;;;;4960652;29;20992;-69
2023/01/20 13:49:46;;;;;;;2.50;1.60;;;9.00;52.20;;;;;;4960149;29;20446;-70
2023/01/20 13:52:14;;;;;;;2.00;1.50;;;8.70;52.60;;;;;;4959914;29;20808;-70
2023/01/20 13:54:46;;;;;;;2.30;1.60;;;8.50;52.50;;;;;;4961534;29;20928;-69
2023/01/20 13:57:46;;;;;;;3.53;2.20;;;8.20;53.70;;;;;;4963588;29;20443;-70
2023/01/20 14:00:18;;;;;;;2.10;1.43;;;7.80;53.80;;;;;;4964855;29;20427;-69
2023/01/20 14:02:50;;;;;;;2.20;1.53;;;7.40;55.60;;;;;;4964237;28;20940;-69
2023/01/20 14:05:29;;;;;;;3.17;1.57;;;7.30;55.90;;;;;;4963224;29;20482;-70
2023/01/20 14:07:57;;;;;;;2.00;1.27;;;7.00;55.90;;;;;;4959657;29;20441;-69
2023/01/20 14:10:25;;;;;;;2.37;1.40;;;7.10;55.30;;;;;;4959943;29;20459;-69
2023/01/20 14:12:51;;;;;;;2.23;1.53;;;7.40;55.50;;;;;;4960833;28;20450;-69
2023/01/20 14:15:35;;;;;;;2.67;1.67;;;7.50;55.40;;;;;;4961112;29;20909;-70
2023/01/20 14:18:03;;;;;;;2.10;1.20;;;7.70;56.50;;;;;;4960826;29;20478;-70
2023/01/20 14:20:30;;;;;;;1.90;1.40;;;7.80;56.70;;;;;;4960478;29;20787;-70
2023/01/20 14:23:45;;;;;;;3.13;1.60;;;7.90;56.70;;;;;;4958746;29;20458;-70
2023/01/20 14:26:20;;;;;;;2.50;1.60;;;8.00;56.50;;;;;;4883522;29;20471;-68
2023/01/20 14:28:49;;;;;;;3.00;1.40;;;8.00;56.60;;;;;;4881708;29;20458;-71
2023/01/20 14:31:30;;;;;;;2.40;1.70;;;8.50;56.70;;;;;;4924105;28;20455;-69
2023/01/20 14:33:58;;;;;;;3.10;1.83;;;9.90;53.90;;;;;;4959915;29;20890;-70
2023/01/20 14:36:29;;;;;;;2.40;1.53;;;11.40;49.90;;;;;;4959509;29;20451;-70
2023/01/20 14:38:58;;;;;;;2.83;1.70;;;12.50;47.50;;;;;;4961407;29;20814;-70
2023/01/20 14:41:48;;;;;;;2.60;1.60;;;13.10;46.00;;;;;;4959021;28;20458;-71
2023/01/20 14:44:20;;;;;;;3.00;1.57;;;12.80;44.50;;;;;;4948709;29;20471;-68
2023/01/20 14:46:49;;;;;;;2.30;1.67;;;12.30;46.40;;;;;;4958419;29;20443;-67
2023/01/20 14:49:17;;;;;;;2.07;1.60;;;11.70;46.80;;;;;;4956212;29;20442;-69
2023/01/20 14:51:45;;;;;;;1.73;1.30;;;11.10;47.60;;;;;;4956501;29;20454;-68
2023/01/20 14:54:38;;;;;;;2.20;1.67;;;10.50;49.50;;;;;;4956401;29;20490;-69
2023/01/20 14:57:19;;;;;;;2.93;1.70;;;9.60;49.70;;;;;;4955929;29;20491;-70
2023/01/20 14:59:47;;;;;;;2.10;1.33;;;8.50;51.80;;;;;;4955971;29;20511;-69
2023/01/20 15:02:22;;;;;;;2.20;1.67;;;7.90;53.40;;;;;;4955985;29;20454;-68
2023/01/20 15:04:49;;;;;;;2.20;1.47;;;7.60;54.80;;;;;;4955618;29;20996;-68
2023/01/20 15:07:19;;;;;;;2.70;1.70;;;7.00;55.00;;;;;;4955381;29;20952;-68
2023/01/20 15:09:54;;;;;;;2.50;1.63;;;6.60;56.40;;;;;;4956374;29;20541;-68
2023/01/20 15:12:41;;;;;;;2.07;1.20;;;6.30;57.60;;;;;;4955652;28;20449;-68
2023/01/20 15:15:14;;;;;;;1.97;1.50;;;6.10;58.40;;;;;;4954889;29;20459;-68
2023/01/20 15:18:15;;;;;;;2.00;1.40;;;5.90;59.10;;;;;;4955664;29;20435;-68
2023/01/20 15:20:44;;;;;;;2.17;1.50;;;5.60;59.00;;;;;;4914468;29;20549;-69
2023/01/20 15:23:17;;;;;;;2.27;1.40;;;5.30;59.90;;;;;;4955444;29;20475;-69
2023/01/20 15:25:43;;;;;;;2.53;2.13;;;5.20;60.50;;;;;;4955444;29;20562;-69
2023/01/20 15:28:23;;;;;;;2.10;1.23;;;5.20;60.90;;;;;;4955411;29;20455;-69
2023/01/20 15:30:50;;;;;;;2.40;1.57;;;5.10;60.80;;;;;;4955390;29;20439;-69
2023/01/20 15:33:19;;;;;;;2.40;1.57;;;5.00;60.70;;;;;;4955246;29;20475;-69
2023/01/20 15:35:50;;;;;;;2.33;1.93;;;5.00;61.00;;;;;;4955469;29;20854;-68
2023/01/20 15:38:16;;;;;;;2.30;1.83;;;5.00;61.80;;;;;;4955324;29;20600;-68
2023/01/20 15:40:43;;;;;;;2.93;1.93;;;5.00;61.50;;;;;;4955071;29;21011;-68
2023/01/20 15:43:15;;;;;;;2.57;1.60;;;5.00;61.50;;;;;;4955824;29;20534;-70
2023/01/20 15:45:43;;;;;;;3.17;2.20;;;4.90;62.10;;;;;;4955320;28;20493;-69
2023/01/20 15:48:18;;;;;;;2.30;1.63;;;4.90;62.20;;;;;;4955354;29;20548;-69
2023/01/20 15:50:45;;;;;;;2.10;1.70;;;4.90;62.40;;;;;;4955073;29;20447;-68
2023/01/20 15:53:12;;;;;;;6.57;2.17;;;4.80;62.10;;;;;;4955699;28;20475;-70
2023/01/20 15:55:46;;;;;;;4.37;2.37;;;4.60;62.10;;;;;;4959101;29;20498;-67
2023/01/20 15:58:22;;;;;;;2.63;2.30;;;4.60;62.90;;;;;;4959138;29;20473;-68
2023/01/20 16:00:50;;;;;;;2.83;2.03;;;4.60;63.30;;;;;;4959037;29;20445;-68
2023/01/20 16:03:18;;;;;;;2.63;2.00;;;4.50;63.50;;;;;;4958952;29;20467;-68
2023/01/20 16:05:47;;;;;;;3.80;3.30;;;4.50;64.30;;;;;;4958917;29;20482;-68
2023/01/20 16:08:15;;;;;;;4.93;2.90;;;4.50;64.50;;;;;;4959189;29;20454;-68
2023/01/20 16:10:41;;;;;;;2.70;2.10;;;4.40;64.50;;;;;;4959044;29;20447;-68
2023/01/20 16:13:09;;;;;;;3.47;2.80;;;4.30;65.50;;;;;;4997230;23;20590;-69
2023/01/20 16:15:36;;;;;;;3.77;2.80;;;4.30;65.90;;;;;;4958803;29;20881;-68
2023/01/20 16:18:05;;;;;;;3.83;2.77;;;4.30;66.10;;;;;;4958861;29;20506;-69
2023/01/20 16:20:34;;;;;;;3.60;2.87;;;4.30;66.20;;;;;;4958347;29;21015;-69
2023/01/20 16:23:00;;;;;;;4.73;3.63;;;4.20;66.10;;;;;;4958241;29;21011;-69
2023/01/20 16:25:27;;;;;;;5.10;3.87;;;4.20;66.60;;;;;;4958494;29;20479;-68
2023/01/20 16:27:54;;;;;;;4.10;3.40;;;4.10;67.10;;;;;;4958253;29;20960;-68
2023/01/20 16:30:22;;;;;;;3.53;3.23;;;4.00;66.60;;;;;;4958819;29;20506;-69
2023/01/20 16:32:49;;;;;;;3.57;2.80;;;4.00;67.00;;;;;;4960429;29;20459;-70
2023/01/20 16:35:19;;;;;;;3.20;2.40;;;4.00;66.90;;;;;;4960964;29;20510;-68
2023/01/20 16:37:47;;;;;;;4.33;2.43;;;3.90;67.40;;;;;;4961653;29;20841;-71
2023/01/20 16:40:15;;;;;;;4.47;3.67;;;3.90;68.00;;;;;;4961442;29;20451;-68
2023/01/20 16:42:42;;;;;;;3.60;3.30;;;3.80;68.70;;;;;;4960793;29;20455;-69
2023/01/20 16:45:22;;;;;;;4.53;4.13;;;3.80;68.70;;;;;;4959223;29;20832;-70
2023/01/20 16:47:48;;;;;;;11.20;9.37;;;3.70;69.10;;;;;;4959701;29;20467;-70
2023/01/20 16:50:17;;;;;;;19.30;15.33;;;3.60;69.40;;;;;;4960866;29;20937;-69
2023/01/20 16:52:44;;;;;;;14.27;12.83;;;3.60;69.50;;;;;;4960069;29;20479;-69
2023/01/20 16:55:10;;;;;;;12.83;11.57;;;3.60;69.30;;;;;;4958806;29;20952;-70
2023/01/20 16:57:37;;;;;;;13.70;10.30;;;3.60;69.60;;;;;;4958669;29;20447;-68
2023/01/20 17:00:05;;;;;;;10.73;9.67;;;3.60;69.60;;;;;;4957993;29;20510;-69
2023/01/20 17:02:32;;;;;;;11.90;9.90;;;3.50;69.70;;;;;;4957930;29;20461;-69
2023/01/20 17:04:59;;;;;;;10.73;9.20;;;3.50;69.40;;;;;;4957134;28;20983;-68
2023/01/20 17:07:27;;;;;;;7.90;7.10;;;3.50;69.40;;;;;;4957770;29;20494;-68
2023/01/20 17:09:55;;;;;;;9.10;8.17;;;3.40;69.50;;;;;;4957816;29;20447;-68
2023/01/20 17:12:21;;;;;;;8.80;7.90;;;3.30;69.60;;;;;;4957787;29;20455;-68
2023/01/20 17:14:48;;;;;;;8.10;6.83;;;3.30;69.60;;;;;;4957366;29;20483;-68
2023/01/20 17:17:14;;;;;;;10.87;9.73;;;3.30;69.70;;;;;;4957652;29;20580;-68
2023/01/20 17:19:41;;;;;;;10.50;9.30;;;3.30;69.70;;;;;;4957466;29;20540;-68
2023/01/20 17:22:08;;;;;;;15.47;12.10;;;3.20;70.00;;;;;;4957652;29;20451;-68
2023/01/20 17:24:38;;;;;;;13.97;9.87;;;3.20;70.00;;;;;;4957398;29;20527;-68
2023/01/20 17:27:04;;;;;;;17.20;13.17;;;3.20;70.20;;;;;;4957482;29;20573;-69
2023/01/20 17:29:31;;;;;;;15.03;13.40;;;3.20;70.10;;;;;;4957718;29;20451;-69